sensor_id;sensor_type;location;lat;lon;timestamp;temperature;humidity
55771;DHT22;41687;-33.234;-60.334;2022-08-21T00:01:53;12.20;43.80
55771;DHT22;41687;-33.234;-60.334;2022-08-21T00:04:21;12.20;43.80
55771;DHT22;41687;-33.234;-60.334;2022-08-21T00:06:50;12.10;43.80
55771;DHT22;41687;-33.234;-60.334;2022-08-21T00:09:19;12.00;44.00
55771;DHT22;41687;-33.234;-60.334;2022-08-21T00:11:47;12.10;44.10
55771;DHT22;41687;-33.234;-60.334;2022-08-21T00:14:16;11.90;44.20
55771;DHT22;41687;-33.234;-60.334;2022-08-21T00:16:44;12.00;44.60
55771;DHT22;41687;-33.234;-60.334;2022-08-21T00:19:12;11.90;44.00
55771;DHT22;41687;-33.234;-60.334;2022-08-21T00:21:40;12.00;44.00
55771;DHT22;41687;-33.234;-60.334;2022-08-21T00:24:08;11.90;44.20
55771;DHT22;41687;-33.234;-60.334;2022-08-21T00:26:36;11.80;44.20
55771;DHT22;41687;-33.234;-60.334;2022-08-21T00:29:04;11.80;44.60
55771;DHT22;41687;-33.234;-60.334;2022-08-21T00:31:32;11.80;44.70
55771;DHT22;41687;-33.234;-60.334;2022-08-21T00:34:00;11.60;44.70
55771;DHT22;41687;-33.234;-60.334;2022-08-21T00:36:28;11.60;45.00
55771;DHT22;41687;-33.234;-60.334;2022-08-21T00:38:56;11.50;45.00
55771;DHT22;41687;-33.234;-60.334;2022-08-21T00:41:24;11.50;45.30
55771;DHT22;41687;-33.234;-60.334;2022-08-21T00:43:54;11.60;45.10
55771;DHT22;41687;-33.234;-60.334;2022-08-21T00:46:22;11.50;44.80
55771;DHT22;41687;-33.234;-60.334;2022-08-21T00:48:50;11.30;45.30
55771;DHT22;41687;-33.234;-60.334;2022-08-21T00:51:21;11.30;45.60
55771;DHT22;41687;-33.234;-60.334;2022-08-21T00:53:55;11.10;45.50
55771;DHT22;41687;-33.234;-60.334;2022-08-21T00:56:25;11.10;45.70
55771;DHT22;41687;-33.234;-60.334;2022-08-21T00:58:54;11.10;45.30
55771;DHT22;41687;-33.234;-60.334;2022-08-21T01:01:23;10.90;46.10
55771;DHT22;41687;-33.234;-60.334;2022-08-21T01:03:51;10.60;46.40
55771;DHT22;41687;-33.234;-60.334;2022-08-21T01:06:19;10.60;46.10
55771;DHT22;41687;-33.234;-60.334;2022-08-21T01:08:47;10.60;46.40
55771;DHT22;41687;-33.234;-60.334;2022-08-21T01:11:16;10.60;47.00
55771;DHT22;41687;-33.234;-60.334;2022-08-21T01:13:44;10.70;46.20
55771;DHT22;41687;-33.234;-60.334;2022-08-21T01:16:17;10.80;45.90
55771;DHT22;41687;-33.234;-60.334;2022-08-21T01:18:47;10.80;46.00
55771;DHT22;41687;-33.234;-60.334;2022-08-21T01:21:21;10.80;45.60
55771;DHT22;41687;-33.234;-60.334;2022-08-21T01:23:52;10.60;46.50
55771;DHT22;41687;-33.234;-60.334;2022-08-21T01:26:24;10.60;46.20
55771;DHT22;41687;-33.234;-60.334;2022-08-21T01:31:59;10.70;46.70
55771;DHT22;41687;-33.234;-60.334;2022-08-21T01:34:26;10.70;46.00
55771;DHT22;41687;-33.234;-60.334;2022-08-21T01:36:55;10.70;45.80
55771;DHT22;41687;-33.234;-60.334;2022-08-21T01:39:22;10.80;45.90
55771;DHT22;41687;-33.234;-60.334;2022-08-21T01:41:50;10.80;46.00
55771;DHT22;41687;-33.234;-60.334;2022-08-21T01:44:21;10.70;46.00
55771;DHT22;41687;-33.234;-60.334;2022-08-21T01:46:50;10.70;46.30
55771;DHT22;41687;-33.234;-60.334;2022-08-21T01:49:18;10.80;46.40
55771;DHT22;41687;-33.234;-60.334;2022-08-21T01:51:46;10.60;46.40
55771;DHT22;41687;-33.234;-60.334;2022-08-21T01:54:13;10.60;46.70
55771;DHT22;41687;-33.234;-60.334;2022-08-21T01:56:47;10.60;46.70
55771;DHT22;41687;-33.234;-60.334;2022-08-21T01:59:16;10.50;46.70
55771;DHT22;41687;-33.234;-60.334;2022-08-21T02:01:44;10.60;46.70
55771;DHT22;41687;-33.234;-60.334;2022-08-21T02:04:12;10.30;47.10
55771;DHT22;41687;-33.234;-60.334;2022-08-21T02:06:40;10.50;47.60
55771;DHT22;41687;-33.234;-60.334;2022-08-21T02:09:07;10.40;47.30
55771;DHT22;41687;-33.234;-60.334;2022-08-21T02:11:36;10.40;47.20
55771;DHT22;41687;-33.234;-60.334;2022-08-21T02:14:12;10.50;47.60
55771;DHT22;41687;-33.234;-60.334;2022-08-21T02:16:42;10.30;47.70
55771;DHT22;41687;-33.234;-60.334;2022-08-21T02:19:13;10.20;48.00
55771;DHT22;41687;-33.234;-60.334;2022-08-21T02:21:42;10.20;47.90
55771;DHT22;41687;-33.234;-60.334;2022-08-21T02:24:11;10.30;48.10
55771;DHT22;41687;-33.234;-60.334;2022-08-21T02:26:40;10.30;47.90
55771;DHT22;41687;-33.234;-60.334;2022-08-21T02:29:07;10.20;48.40
55771;DHT22;41687;-33.234;-60.334;2022-08-21T02:31:35;10.20;48.10
55771;DHT22;41687;-33.234;-60.334;2022-08-21T02:34:03;10.20;48.00
55771;DHT22;41687;-33.234;-60.334;2022-08-21T02:36:31;10.10;48.30
55771;DHT22;41687;-33.234;-60.334;2022-08-21T02:38:59;9.90;48.30
55771;DHT22;41687;-33.234;-60.334;2022-08-21T02:41:26;10.10;48.30
55771;DHT22;41687;-33.234;-60.334;2022-08-21T02:43:54;10.10;48.40
55771;DHT22;41687;-33.234;-60.334;2022-08-21T02:46:22;10.10;48.80
55771;DHT22;41687;-33.234;-60.334;2022-08-21T02:48:50;9.80;49.10
55771;DHT22;41687;-33.234;-60.334;2022-08-21T02:51:19;9.70;49.10
55771;DHT22;41687;-33.234;-60.334;2022-08-21T02:53:48;9.80;49.20
55771;DHT22;41687;-33.234;-60.334;2022-08-21T02:56:20;9.70;49.30
55771;DHT22;41687;-33.234;-60.334;2022-08-21T02:58:51;9.70;49.70
55771;DHT22;41687;-33.234;-60.334;2022-08-21T03:01:20;9.70;49.60
55771;DHT22;41687;-33.234;-60.334;2022-08-21T03:03:49;9.50;49.60
55771;DHT22;41687;-33.234;-60.334;2022-08-21T03:06:18;9.60;49.50
55771;DHT22;41687;-33.234;-60.334;2022-08-21T03:08:48;9.70;49.70
55771;DHT22;41687;-33.234;-60.334;2022-08-21T03:11:16;9.50;49.70
55771;DHT22;41687;-33.234;-60.334;2022-08-21T03:13:44;9.60;49.40
55771;DHT22;41687;-33.234;-60.334;2022-08-21T03:16:12;9.60;49.80
55771;DHT22;41687;-33.234;-60.334;2022-08-21T03:18:40;9.40;49.90
55771;DHT22;41687;-33.234;-60.334;2022-08-21T03:21:08;9.30;49.90
55771;DHT22;41687;-33.234;-60.334;2022-08-21T03:23:36;9.30;50.20
55771;DHT22;41687;-33.234;-60.334;2022-08-21T03:26:07;9.40;49.60
55771;DHT22;41687;-33.234;-60.334;2022-08-21T03:28:35;9.50;49.30
55771;DHT22;41687;-33.234;-60.334;2022-08-21T03:31:03;9.40;49.30
55771;DHT22;41687;-33.234;-60.334;2022-08-21T03:33:32;9.40;49.30
55771;DHT22;41687;-33.234;-60.334;2022-08-21T03:36:06;9.40;49.20
55771;DHT22;41687;-33.234;-60.334;2022-08-21T03:38:35;9.30;49.50
55771;DHT22;41687;-33.234;-60.334;2022-08-21T03:41:04;9.40;49.80
55771;DHT22;41687;-33.234;-60.334;2022-08-21T03:43:33;9.30;50.00
55771;DHT22;41687;-33.234;-60.334;2022-08-21T03:46:05;9.20;50.60
55771;DHT22;41687;-33.234;-60.334;2022-08-21T03:48:35;9.10;50.90
55771;DHT22;41687;-33.234;-60.334;2022-08-21T03:51:03;9.00;50.50
55771;DHT22;41687;-33.234;-60.334;2022-08-21T03:53:31;9.20;50.00
55771;DHT22;41687;-33.234;-60.334;2022-08-21T03:56:00;9.20;49.90
55771;DHT22;41687;-33.234;-60.334;2022-08-21T03:58:29;9.00;50.30
55771;DHT22;41687;-33.234;-60.334;2022-08-21T04:00:57;8.80;50.50
55771;DHT22;41687;-33.234;-60.334;2022-08-21T04:03:24;9.10;49.90
55771;DHT22;41687;-33.234;-60.334;2022-08-21T04:05:53;9.10;49.50
55771;DHT22;41687;-33.234;-60.334;2022-08-21T04:08:21;9.10;50.40
55771;DHT22;41687;-33.234;-60.334;2022-08-21T04:10:51;9.00;50.10
55771;DHT22;41687;-33.234;-60.334;2022-08-21T04:13:21;9.10;50.20
55771;DHT22;41687;-33.234;-60.334;2022-08-21T04:15:49;9.10;50.00
55771;DHT22;41687;-33.234;-60.334;2022-08-21T04:18:17;9.00;50.40
55771;DHT22;41687;-33.234;-60.334;2022-08-21T04:20:48;9.00;50.40
55771;DHT22;41687;-33.234;-60.334;2022-08-21T04:23:19;9.00;50.10
55771;DHT22;41687;-33.234;-60.334;2022-08-21T04:25:47;9.10;49.70
55771;DHT22;41687;-33.234;-60.334;2022-08-21T04:28:15;9.00;50.50
55771;DHT22;41687;-33.234;-60.334;2022-08-21T04:30:42;8.90;50.30
55771;DHT22;41687;-33.234;-60.334;2022-08-21T04:33:10;8.90;50.90
55771;DHT22;41687;-33.234;-60.334;2022-08-21T04:35:37;8.90;50.90
55771;DHT22;41687;-33.234;-60.334;2022-08-21T04:38:05;8.70;51.70
55771;DHT22;41687;-33.234;-60.334;2022-08-21T04:40:33;8.80;50.90
55771;DHT22;41687;-33.234;-60.334;2022-08-21T04:43:05;8.80;51.10
55771;DHT22;41687;-33.234;-60.334;2022-08-21T04:45:39;8.80;51.20
55771;DHT22;41687;-33.234;-60.334;2022-08-21T04:48:09;8.80;50.70
55771;DHT22;41687;-33.234;-60.334;2022-08-21T04:55:56;8.80;51.60
55771;DHT22;41687;-33.234;-60.334;2022-08-21T04:58:25;8.80;51.30
55771;DHT22;41687;-33.234;-60.334;2022-08-21T05:00:55;8.90;51.20
55771;DHT22;41687;-33.234;-60.334;2022-08-21T05:03:23;8.80;51.70
55771;DHT22;41687;-33.234;-60.334;2022-08-21T05:05:52;8.70;51.80
55771;DHT22;41687;-33.234;-60.334;2022-08-21T05:08:22;8.50;52.60
55771;DHT22;41687;-33.234;-60.334;2022-08-21T05:10:51;8.60;52.40
55771;DHT22;41687;-33.234;-60.334;2022-08-21T05:13:19;8.60;51.80
55771;DHT22;41687;-33.234;-60.334;2022-08-21T05:15:47;8.70;51.50
55771;DHT22;41687;-33.234;-60.334;2022-08-21T05:18:15;8.70;51.30
55771;DHT22;41687;-33.234;-60.334;2022-08-21T05:20:43;8.70;51.60
55771;DHT22;41687;-33.234;-60.334;2022-08-21T05:23:13;8.70;52.40
55771;DHT22;41687;-33.234;-60.334;2022-08-21T05:25:42;8.70;51.70
55771;DHT22;41687;-33.234;-60.334;2022-08-21T05:28:10;8.70;52.20
55771;DHT22;41687;-33.234;-60.334;2022-08-21T05:30:39;8.60;51.90
55771;DHT22;41687;-33.234;-60.334;2022-08-21T05:33:07;8.60;52.20
55771;DHT22;41687;-33.234;-60.334;2022-08-21T05:35:36;8.60;52.00
55771;DHT22;41687;-33.234;-60.334;2022-08-21T05:38:05;8.70;51.90
55771;DHT22;41687;-33.234;-60.334;2022-08-21T05:40:33;8.70;52.30
55771;DHT22;41687;-33.234;-60.334;2022-08-21T05:43:01;8.70;52.10
55771;DHT22;41687;-33.234;-60.334;2022-08-21T05:45:32;8.70;52.00
55771;DHT22;41687;-33.234;-60.334;2022-08-21T05:48:12;8.80;51.80
55771;DHT22;41687;-33.234;-60.334;2022-08-21T05:50:41;8.80;52.30
55771;DHT22;41687;-33.234;-60.334;2022-08-21T05:53:09;8.70;52.10
55771;DHT22;41687;-33.234;-60.334;2022-08-21T05:55:38;8.50;52.70
55771;DHT22;41687;-33.234;-60.334;2022-08-21T05:58:06;8.40;52.50
55771;DHT22;41687;-33.234;-60.334;2022-08-21T06:00:34;8.40;52.10
55771;DHT22;41687;-33.234;-60.334;2022-08-21T06:03:01;8.60;52.10
55771;DHT22;41687;-33.234;-60.334;2022-08-21T06:05:30;8.60;52.20
55771;DHT22;41687;-33.234;-60.334;2022-08-21T06:07:58;8.50;52.80
55771;DHT22;41687;-33.234;-60.334;2022-08-21T06:10:26;8.50;52.60
55771;DHT22;41687;-33.234;-60.334;2022-08-21T06:12:54;8.40;52.90
55771;DHT22;41687;-33.234;-60.334;2022-08-21T06:15:23;8.30;53.30
55771;DHT22;41687;-33.234;-60.334;2022-08-21T06:17:51;8.40;52.60
55771;DHT22;41687;-33.234;-60.334;2022-08-21T06:20:20;8.60;52.40
55771;DHT22;41687;-33.234;-60.334;2022-08-21T06:22:47;8.60;52.10
55771;DHT22;41687;-33.234;-60.334;2022-08-21T06:25:16;8.70;51.90
55771;DHT22;41687;-33.234;-60.334;2022-08-21T06:27:43;8.80;51.80
55771;DHT22;41687;-33.234;-60.334;2022-08-21T06:30:11;8.80;51.60
55771;DHT22;41687;-33.234;-60.334;2022-08-21T06:32:39;8.80;51.60
55771;DHT22;41687;-33.234;-60.334;2022-08-21T06:35:07;8.80;51.70
55771;DHT22;41687;-33.234;-60.334;2022-08-21T06:37:35;8.80;52.00
55771;DHT22;41687;-33.234;-60.334;2022-08-21T06:40:04;8.80;51.90
55771;DHT22;41687;-33.234;-60.334;2022-08-21T06:42:33;8.70;52.00
55771;DHT22;41687;-33.234;-60.334;2022-08-21T06:45:01;8.70;51.90
55771;DHT22;41687;-33.234;-60.334;2022-08-21T06:47:29;8.70;51.60
55771;DHT22;41687;-33.234;-60.334;2022-08-21T06:49:56;8.60;52.20
55771;DHT22;41687;-33.234;-60.334;2022-08-21T06:52:24;8.60;52.30
55771;DHT22;41687;-33.234;-60.334;2022-08-21T06:54:52;8.60;52.10
55771;DHT22;41687;-33.234;-60.334;2022-08-21T06:57:19;8.50;52.40
55771;DHT22;41687;-33.234;-60.334;2022-08-21T06:59:47;8.50;52.60
55771;DHT22;41687;-33.234;-60.334;2022-08-21T07:02:15;8.40;52.70
55771;DHT22;41687;-33.234;-60.334;2022-08-21T07:04:43;8.40;52.70
55771;DHT22;41687;-33.234;-60.334;2022-08-21T07:07:10;8.50;52.70
55771;DHT22;41687;-33.234;-60.334;2022-08-21T07:09:38;8.50;52.60
55771;DHT22;41687;-33.234;-60.334;2022-08-21T07:12:07;8.50;52.70
55771;DHT22;41687;-33.234;-60.334;2022-08-21T07:14:35;8.50;52.80
55771;DHT22;41687;-33.234;-60.334;2022-08-21T07:17:03;8.50;52.70
55771;DHT22;41687;-33.234;-60.334;2022-08-21T07:19:31;8.50;53.00
55771;DHT22;41687;-33.234;-60.334;2022-08-21T07:22:01;8.40;53.00
55771;DHT22;41687;-33.234;-60.334;2022-08-21T07:24:29;8.50;53.10
55771;DHT22;41687;-33.234;-60.334;2022-08-21T07:26:57;8.40;53.00
55771;DHT22;41687;-33.234;-60.334;2022-08-21T07:29:25;8.40;53.10
55771;DHT22;41687;-33.234;-60.334;2022-08-21T07:31:53;8.40;53.30
55771;DHT22;41687;-33.234;-60.334;2022-08-21T07:34:20;8.30;53.60
55771;DHT22;41687;-33.234;-60.334;2022-08-21T07:36:48;8.30;53.80
55771;DHT22;41687;-33.234;-60.334;2022-08-21T07:39:16;8.30;54.00
55771;DHT22;41687;-33.234;-60.334;2022-08-21T07:41:44;8.20;54.00
55771;DHT22;41687;-33.234;-60.334;2022-08-21T07:44:12;8.20;54.20
55771;DHT22;41687;-33.234;-60.334;2022-08-21T07:46:39;8.10;54.40
55771;DHT22;41687;-33.234;-60.334;2022-08-21T07:49:08;8.10;54.40
55771;DHT22;41687;-33.234;-60.334;2022-08-21T07:51:35;8.10;54.50
55771;DHT22;41687;-33.234;-60.334;2022-08-21T07:54:03;8.10;54.70
55771;DHT22;41687;-33.234;-60.334;2022-08-21T07:56:31;8.10;54.70
55771;DHT22;41687;-33.234;-60.334;2022-08-21T07:59:00;8.10;54.70
55771;DHT22;41687;-33.234;-60.334;2022-08-21T08:01:29;8.10;54.70
55771;DHT22;41687;-33.234;-60.334;2022-08-21T08:03:56;8.00;55.00
55771;DHT22;41687;-33.234;-60.334;2022-08-21T08:06:25;8.00;55.00
55771;DHT22;41687;-33.234;-60.334;2022-08-21T08:08:52;8.00;55.30
55771;DHT22;41687;-33.234;-60.334;2022-08-21T08:11:20;8.00;55.30
55771;DHT22;41687;-33.234;-60.334;2022-08-21T08:13:51;7.90;55.20
55771;DHT22;41687;-33.234;-60.334;2022-08-21T08:16:19;7.90;55.50
55771;DHT22;41687;-33.234;-60.334;2022-08-21T08:18:47;7.80;55.70
55771;DHT22;41687;-33.234;-60.334;2022-08-21T08:21:15;7.80;55.70
55771;DHT22;41687;-33.234;-60.334;2022-08-21T08:23:43;7.70;55.40
55771;DHT22;41687;-33.234;-60.334;2022-08-21T08:26:12;7.70;56.20
55771;DHT22;41687;-33.234;-60.334;2022-08-21T08:28:40;7.60;56.30
55771;DHT22;41687;-33.234;-60.334;2022-08-21T08:31:08;7.60;56.30
55771;DHT22;41687;-33.234;-60.334;2022-08-21T08:33:35;7.60;56.50
55771;DHT22;41687;-33.234;-60.334;2022-08-21T08:36:04;7.60;56.40
55771;DHT22;41687;-33.234;-60.334;2022-08-21T08:38:31;7.50;56.70
55771;DHT22;41687;-33.234;-60.334;2022-08-21T08:41:14;7.50;56.40
55771;DHT22;41687;-33.234;-60.334;2022-08-21T08:43:50;7.40;57.80
55771;DHT22;41687;-33.234;-60.334;2022-08-21T08:46:26;7.40;56.60
55771;DHT22;41687;-33.234;-60.334;2022-08-21T08:49:24;7.40;56.60
55771;DHT22;41687;-33.234;-60.334;2022-08-21T08:55:00;7.50;56.90
55771;DHT22;41687;-33.234;-60.334;2022-08-21T08:57:29;7.50;57.20
55771;DHT22;41687;-33.234;-60.334;2022-08-21T09:00:00;7.50;56.90
55771;DHT22;41687;-33.234;-60.334;2022-08-21T09:02:29;7.40;57.10
55771;DHT22;41687;-33.234;-60.334;2022-08-21T09:04:58;7.40;57.00
55771;DHT22;41687;-33.234;-60.334;2022-08-21T09:10:22;7.40;57.90
55771;DHT22;41687;-33.234;-60.334;2022-08-21T09:15:33;7.30;57.30
55771;DHT22;41687;-33.234;-60.334;2022-08-21T09:18:35;7.30;57.70
55771;DHT22;41687;-33.234;-60.334;2022-08-21T09:24:32;7.20;58.10
55771;DHT22;41687;-33.234;-60.334;2022-08-21T09:27:08;7.10;58.30
55771;DHT22;41687;-33.234;-60.334;2022-08-21T09:29:40;7.10;57.70
55771;DHT22;41687;-33.234;-60.334;2022-08-21T09:32:30;7.00;57.40
55771;DHT22;41687;-33.234;-60.334;2022-08-21T09:35:10;6.90;58.50
55771;DHT22;41687;-33.234;-60.334;2022-08-21T09:38:05;6.80;57.80
55771;DHT22;41687;-33.234;-60.334;2022-08-21T09:43:16;6.70;58.20
55771;DHT22;41687;-33.234;-60.334;2022-08-21T09:45:46;6.70;58.20
55771;DHT22;41687;-33.234;-60.334;2022-08-21T09:48:18;6.70;58.40
55771;DHT22;41687;-33.234;-60.334;2022-08-21T09:50:48;6.60;59.00
55771;DHT22;41687;-33.234;-60.334;2022-08-21T09:53:23;6.60;58.60
55771;DHT22;41687;-33.234;-60.334;2022-08-21T09:56:04;6.60;59.00
55771;DHT22;41687;-33.234;-60.334;2022-08-21T09:58:52;6.60;59.70
55771;DHT22;41687;-33.234;-60.334;2022-08-21T10:01:22;6.50;58.80
55771;DHT22;41687;-33.234;-60.334;2022-08-21T10:04:07;6.60;59.30
55771;DHT22;41687;-33.234;-60.334;2022-08-21T10:06:35;6.50;60.30
55771;DHT22;41687;-33.234;-60.334;2022-08-21T10:09:09;6.40;59.60
55771;DHT22;41687;-33.234;-60.334;2022-08-21T10:11:39;6.30;59.70
55771;DHT22;41687;-33.234;-60.334;2022-08-21T10:17:03;6.20;60.20
55771;DHT22;41687;-33.234;-60.334;2022-08-21T10:20:04;6.20;60.20
55771;DHT22;41687;-33.234;-60.334;2022-08-21T10:22:38;6.20;61.80
55771;DHT22;41687;-33.234;-60.334;2022-08-21T10:25:40;6.20;60.60
55771;DHT22;41687;-33.234;-60.334;2022-08-21T10:34:13;6.20;60.10
55771;DHT22;41687;-33.234;-60.334;2022-08-21T10:36:39;6.20;61.00
55771;DHT22;41687;-33.234;-60.334;2022-08-21T10:39:26;6.20;61.80
55771;DHT22;41687;-33.234;-60.334;2022-08-21T10:56:18;6.30;61.80
55771;DHT22;41687;-33.234;-60.334;2022-08-21T11:04:59;6.30;62.40
55771;DHT22;41687;-33.234;-60.334;2022-08-21T11:07:36;6.40;64.40
55771;DHT22;41687;-33.234;-60.334;2022-08-21T11:10:59;6.60;64.30
55771;DHT22;41687;-33.234;-60.334;2022-08-21T11:23:55;10.00;60.00
55771;DHT22;41687;-33.234;-60.334;2022-08-21T11:26:37;10.30;60.20
55771;DHT22;41687;-33.234;-60.334;2022-08-21T11:29:28;10.60;59.00
55771;DHT22;41687;-33.234;-60.334;2022-08-21T11:40:46;13.50;54.00
55771;DHT22;41687;-33.234;-60.334;2022-08-21T11:45:54;14.50;51.60
55771;DHT22;41687;-33.234;-60.334;2022-08-21T11:48:46;14.60;51.20
55771;DHT22;41687;-33.234;-60.334;2022-08-21T11:51:22;14.70;51.10
55771;DHT22;41687;-33.234;-60.334;2022-08-21T11:54:08;14.80;50.60
55771;DHT22;41687;-33.234;-60.334;2022-08-21T11:56:48;15.00;50.60
55771;DHT22;41687;-33.234;-60.334;2022-08-21T11:59:39;15.00;50.40
55771;DHT22;41687;-33.234;-60.334;2022-08-21T12:02:17;15.20;49.60
55771;DHT22;41687;-33.234;-60.334;2022-08-21T12:05:08;15.30;48.90
55771;DHT22;41687;-33.234;-60.334;2022-08-21T12:07:44;15.50;48.70
55771;DHT22;41687;-33.234;-60.334;2022-08-21T12:10:16;15.80;47.60
55771;DHT22;41687;-33.234;-60.334;2022-08-21T12:12:48;16.10;47.10
55771;DHT22;41687;-33.234;-60.334;2022-08-21T12:21:05;17.00;45.00
55771;DHT22;41687;-33.234;-60.334;2022-08-21T12:23:47;17.10;44.40
55771;DHT22;41687;-33.234;-60.334;2022-08-21T12:29:16;17.40;42.60
55771;DHT22;41687;-33.234;-60.334;2022-08-21T12:31:52;17.10;42.20
55771;DHT22;41687;-33.234;-60.334;2022-08-21T12:34:23;17.00;44.30
55771;DHT22;41687;-33.234;-60.334;2022-08-21T12:37:18;16.90;43.80
55771;DHT22;41687;-33.234;-60.334;2022-08-21T12:39:52;17.10;42.10
55771;DHT22;41687;-33.234;-60.334;2022-08-21T12:42:41;17.30;43.50
55771;DHT22;41687;-33.234;-60.334;2022-08-21T12:45:34;17.60;41.80
55771;DHT22;41687;-33.234;-60.334;2022-08-21T12:48:22;17.50;41.80
55771;DHT22;41687;-33.234;-60.334;2022-08-21T12:50:54;17.60;42.10
55771;DHT22;41687;-33.234;-60.334;2022-08-21T12:53:27;17.60;42.70
55771;DHT22;41687;-33.234;-60.334;2022-08-21T12:55:57;17.60;42.10
55771;DHT22;41687;-33.234;-60.334;2022-08-21T12:58:30;17.50;43.00
55771;DHT22;41687;-33.234;-60.334;2022-08-21T13:01:08;18.00;43.50
55771;DHT22;41687;-33.234;-60.334;2022-08-21T13:03:41;18.60;42.70
55771;DHT22;41687;-33.234;-60.334;2022-08-21T13:06:15;17.80;43.80
55771;DHT22;41687;-33.234;-60.334;2022-08-21T13:08:45;17.90;43.10
55771;DHT22;41687;-33.234;-60.334;2022-08-21T13:11:16;18.10;44.80
55771;DHT22;41687;-33.234;-60.334;2022-08-21T13:13:49;17.70;42.70
55771;DHT22;41687;-33.234;-60.334;2022-08-21T13:16:28;17.80;43.40
55771;DHT22;41687;-33.234;-60.334;2022-08-21T13:19:00;18.10;44.40
55771;DHT22;41687;-33.234;-60.334;2022-08-21T13:21:39;18.10;43.60
55771;DHT22;41687;-33.234;-60.334;2022-08-21T13:24:24;18.50;42.90
55771;DHT22;41687;-33.234;-60.334;2022-08-21T13:26:54;18.50;42.20
55771;DHT22;41687;-33.234;-60.334;2022-08-21T13:29:27;18.60;44.00
55771;DHT22;41687;-33.234;-60.334;2022-08-21T13:32:03;18.60;44.30
55771;DHT22;41687;-33.234;-60.334;2022-08-21T13:34:37;18.40;43.30
55771;DHT22;41687;-33.234;-60.334;2022-08-21T13:37:08;18.30;43.70
55771;DHT22;41687;-33.234;-60.334;2022-08-21T13:39:38;18.30;44.40
55771;DHT22;41687;-33.234;-60.334;2022-08-21T13:42:11;18.20;44.90
55771;DHT22;41687;-33.234;-60.334;2022-08-21T13:44:44;18.20;44.50
55771;DHT22;41687;-33.234;-60.334;2022-08-21T13:47:14;18.10;44.90
55771;DHT22;41687;-33.234;-60.334;2022-08-21T13:49:51;18.10;44.60
55771;DHT22;41687;-33.234;-60.334;2022-08-21T13:52:26;18.00;42.50
55771;DHT22;41687;-33.234;-60.334;2022-08-21T13:54:59;17.20;43.00
55771;DHT22;41687;-33.234;-60.334;2022-08-21T13:57:32;16.80;44.30
55771;DHT22;41687;-33.234;-60.334;2022-08-21T14:00:10;16.50;44.10
55771;DHT22;41687;-33.234;-60.334;2022-08-21T14:02:43;16.50;43.60
55771;DHT22;41687;-33.234;-60.334;2022-08-21T14:05:31;16.60;42.90
55771;DHT22;41687;-33.234;-60.334;2022-08-21T14:08:06;16.60;43.30
55771;DHT22;41687;-33.234;-60.334;2022-08-21T14:10:43;16.90;43.70
55771;DHT22;41687;-33.234;-60.334;2022-08-21T14:16:16;16.90;42.10
55771;DHT22;41687;-33.234;-60.334;2022-08-21T14:18:50;16.80;42.60
55771;DHT22;41687;-33.234;-60.334;2022-08-21T14:21:32;16.90;43.00
55771;DHT22;41687;-33.234;-60.334;2022-08-21T14:24:07;16.80;43.10
55771;DHT22;41687;-33.234;-60.334;2022-08-21T14:26:43;16.40;42.50
55771;DHT22;41687;-33.234;-60.334;2022-08-21T14:29:14;16.50;42.90
55771;DHT22;41687;-33.234;-60.334;2022-08-21T14:31:48;16.70;42.60
55771;DHT22;41687;-33.234;-60.334;2022-08-21T14:34:17;16.80;43.30
55771;DHT22;41687;-33.234;-60.334;2022-08-21T14:36:44;16.60;42.50
55771;DHT22;41687;-33.234;-60.334;2022-08-21T14:39:12;16.80;44.00
55771;DHT22;41687;-33.234;-60.334;2022-08-21T14:41:40;17.10;42.60
55771;DHT22;41687;-33.234;-60.334;2022-08-21T14:44:10;17.00;42.40
55771;DHT22;41687;-33.234;-60.334;2022-08-21T14:46:38;16.90;43.20
55771;DHT22;41687;-33.234;-60.334;2022-08-21T14:49:06;16.90;42.40
55771;DHT22;41687;-33.234;-60.334;2022-08-21T14:51:34;16.70;41.90
55771;DHT22;41687;-33.234;-60.334;2022-08-21T14:54:02;16.30;41.40
55771;DHT22;41687;-33.234;-60.334;2022-08-21T14:56:30;16.30;42.60
55771;DHT22;41687;-33.234;-60.334;2022-08-21T14:59:05;16.20;42.20
55771;DHT22;41687;-33.234;-60.334;2022-08-21T15:01:36;16.00;40.80
55771;DHT22;41687;-33.234;-60.334;2022-08-21T15:04:05;16.10;42.10
55771;DHT22;41687;-33.234;-60.334;2022-08-21T15:06:32;16.50;42.60
55771;DHT22;41687;-33.234;-60.334;2022-08-21T15:09:01;16.50;41.70
55771;DHT22;41687;-33.234;-60.334;2022-08-21T15:11:32;16.50;41.70
55771;DHT22;41687;-33.234;-60.334;2022-08-21T15:14:02;16.60;41.40
55771;DHT22;41687;-33.234;-60.334;2022-08-21T15:16:31;16.90;42.50
55771;DHT22;41687;-33.234;-60.334;2022-08-21T15:18:58;16.90;41.30
55771;DHT22;41687;-33.234;-60.334;2022-08-21T15:21:26;16.90;41.90
55771;DHT22;41687;-33.234;-60.334;2022-08-21T15:23:54;16.80;41.20
55771;DHT22;41687;-33.234;-60.334;2022-08-21T15:26:23;16.70;41.60
55771;DHT22;41687;-33.234;-60.334;2022-08-21T15:28:51;16.80;41.10
55771;DHT22;41687;-33.234;-60.334;2022-08-21T15:31:22;16.80;41.00
55771;DHT22;41687;-33.234;-60.334;2022-08-21T15:33:50;16.90;40.70
55771;DHT22;41687;-33.234;-60.334;2022-08-21T15:36:18;17.00;40.70
55771;DHT22;41687;-33.234;-60.334;2022-08-21T15:38:46;17.00;40.90
55771;DHT22;41687;-33.234;-60.334;2022-08-21T15:41:14;16.80;39.90
55771;DHT22;41687;-33.234;-60.334;2022-08-21T15:43:46;16.70;40.00
55771;DHT22;41687;-33.234;-60.334;2022-08-21T15:46:16;16.90;40.70
55771;DHT22;41687;-33.234;-60.334;2022-08-21T15:48:44;17.10;40.90
55771;DHT22;41687;-33.234;-60.334;2022-08-21T15:51:15;17.20;41.30
55771;DHT22;41687;-33.234;-60.334;2022-08-21T15:53:44;17.10;41.10
55771;DHT22;41687;-33.234;-60.334;2022-08-21T15:56:25;17.00;39.80
55771;DHT22;41687;-33.234;-60.334;2022-08-21T15:59:02;16.90;39.20
55771;DHT22;41687;-33.234;-60.334;2022-08-21T16:01:32;16.80;39.80
55771;DHT22;41687;-33.234;-60.334;2022-08-21T16:04:00;16.80;40.80
55771;DHT22;41687;-33.234;-60.334;2022-08-21T16:06:29;16.70;39.40
55771;DHT22;41687;-33.234;-60.334;2022-08-21T16:08:57;16.60;39.50
55771;DHT22;41687;-33.234;-60.334;2022-08-21T16:11:26;16.50;38.90
55771;DHT22;41687;-33.234;-60.334;2022-08-21T16:13:54;16.30;38.90
55771;DHT22;41687;-33.234;-60.334;2022-08-21T16:16:23;16.20;38.60
55771;DHT22;41687;-33.234;-60.334;2022-08-21T16:18:52;16.30;39.30
55771;DHT22;41687;-33.234;-60.334;2022-08-21T16:21:20;16.20;39.40
55771;DHT22;41687;-33.234;-60.334;2022-08-21T16:23:48;16.20;39.10
55771;DHT22;41687;-33.234;-60.334;2022-08-21T16:26:16;16.30;39.40
55771;DHT22;41687;-33.234;-60.334;2022-08-21T16:28:45;16.30;39.30
55771;DHT22;41687;-33.234;-60.334;2022-08-21T16:31:15;16.20;39.40
55771;DHT22;41687;-33.234;-60.334;2022-08-21T16:33:49;16.30;39.90
55771;DHT22;41687;-33.234;-60.334;2022-08-21T16:36:19;16.30;39.10
55771;DHT22;41687;-33.234;-60.334;2022-08-21T16:38:46;16.30;39.30
55771;DHT22;41687;-33.234;-60.334;2022-08-21T16:41:17;16.40;40.10
55771;DHT22;41687;-33.234;-60.334;2022-08-21T16:43:49;16.40;39.70
55771;DHT22;41687;-33.234;-60.334;2022-08-21T16:46:18;16.40;39.20